| time (UTC) | temp C | wind direction | speed KPH | gust KPH | rain 1hr cm | rain 24hr cm | rain mn cm | humidity % | barometer mb |
| 20260906151514 | 18 | 300 | 6.4 | 22.5 | 0.00 | 0.00 | 0.00 | 63 | 1022.5 |
| 20260906151010 | 18 | 257 | 12.9 | 29.0 | 0.00 | 0.00 | 0.00 | 62 | 1022.5 |
| 20260906150511 | 18 | 263 | 12.9 | 29.0 | 0.00 | 0.00 | 0.00 | 63 | 1022.6 |
| 20260906150029 | 17 | 274 | 16.1 | 33.8 | 0.00 | 0.00 | 0.00 | 61 | 1022.6 |
| 20260906145514 | 18 | 239 | 16.1 | 33.8 | 0.00 | 0.00 | 0.00 | 63 | 1022.6 |
| 20260906145015 | 18 | 278 | 9.7 | 25.7 | 0.00 | 0.00 | 0.00 | 63 | 1022.6 |
| 20260906144531 | 18 | 264 | 11.3 | 30.6 | 0.00 | 0.00 | 0.00 | 60 | 1022.6 |
| 20260906144016 | 18 | 274 | 12.9 | 30.6 | 0.00 | 0.00 | 0.00 | 64 | 1022.6 |
| 20260906143506 | 17 | 263 | 9.7 | 22.5 | 0.00 | 0.00 | 0.00 | 62 | 1022.6 |
| 20260906143010 | 18 | 294 | 12.9 | 22.5 | 0.00 | 0.00 | 0.00 | 61 | 1022.6 |
| 20260906142510 | 18 | 305 | 12.9 | 25.7 | 0.00 | 0.00 | 0.00 | 64 | 1022.6 |
| 20260906142010 | 18 | 274 | 14.5 | 27.4 | 0.00 | 0.00 | 0.00 | 64 | 1022.6 |
| 20260906141516 | 18 | 242 | 12.9 | 30.6 | 0.00 | 0.00 | 0.00 | 64 | 1022.6 |
| 20260906141018 | 17 | 279 | 14.5 | 30.6 | 0.00 | 0.00 | 0.00 | 62 | 1022.5 |
| 20260906140511 | 17 | 360 | 16.1 | 29.0 | 0.00 | 0.00 | 0.00 | 63 | 1022.5 |
| 20260906140027 | 17 | 360 | 12.9 | 30.6 | 0.00 | 0.00 | 0.00 | 65 | 1022.5 |
| 20260906135516 | 17 | 267 | 12.9 | 30.6 | 0.00 | 0.00 | 0.00 | 65 | 1022.5 |
| 20260906135016 | 17 | 246 | 11.3 | 25.7 | 0.00 | 0.00 | 0.00 | 65 | 1022.6 |
| 20260906134530 | 16 | 265 | 17.7 | 25.7 | 0.00 | 0.00 | 0.00 | 65 | 1022.5 |
| 20260906134016 | 16 | 256 | 14.5 | 25.7 | 0.00 | 0.00 | 0.00 | 67 | 1022.5 |
| 20260906133507 | 16 | 251 | 16.1 | 27.4 | 0.00 | 0.00 | 0.00 | 69 | 1022.5 |
| 20260906133010 | 17 | 236 | 16.1 | 27.4 | 0.00 | 0.00 | 0.00 | 66 | 1022.5 |
| 20260906132508 | 17 | 257 | 14.5 | 27.4 | 0.00 | 0.00 | 0.00 | 65 | 1022.5 |
| 20260906132011 | 18 | 254 | 11.3 | 25.7 | 0.00 | 0.00 | 0.00 | 65 | 1022.6 |
| 20260906131520 | 17 | 253 | 6.4 | 33.8 | 0.00 | 0.00 | 0.00 | 69 | 1022.5 |
| 20260906131011 | 17 | 248 | 16.1 | 33.8 | 0.00 | 0.00 | 0.00 | 66 | 1022.5 |
| 20260906130513 | 17 | 263 | 19.3 | 30.6 | 0.00 | 0.00 | 0.00 | 65 | 1022.4 |
| 20260906130002 | 17 | 261 | 19.3 | 30.6 | 0.00 | 0.00 | 0.00 | 66 | 1022.5 |
| 20260906125506 | 17 | 259 | 12.9 | 25.7 | 0.00 | 0.00 | 0.00 | 68 | 1022.5 |
| 20260906125002 | 17 | 273 | 11.3 | 20.9 | 0.00 | 0.00 | 0.00 | 68 | 1022.5 |
| 20260906124507 | 18 | 256 | 9.7 | 35.4 | 0.00 | 0.00 | 0.00 | 66 | 1022.3 |
| 20260906124016 | 17 | 282 | 8.0 | 35.4 | 0.00 | 0.00 | 0.00 | 67 | 1022.3 |
| 20260906123506 | 18 | 295 | 19.3 | 29.0 | 0.00 | 0.00 | 0.00 | 63 | 1022.3 |
| 20260906123018 | 18 | 249 | 11.3 | 27.4 | 0.00 | 0.00 | 0.00 | 69 | 1022.3 |
| 20260906122510 | 17 | 267 | 14.5 | 27.4 | 0.00 | 0.00 | 0.00 | 69 | 1022.3 |
| 20260906122014 | 18 | 244 | 11.3 | 27.4 | 0.00 | 0.00 | 0.00 | 67 | 1022.2 |
| 20260906121529 | 17 | 240 | 9.7 | 30.6 | 0.00 | 0.00 | 0.00 | 69 | 1022.2 |
| 20260906121015 | 18 | 309 | 11.3 | 30.6 | 0.00 | 0.00 | 0.00 | 67 | 1022.2 |
| 20260906120516 | 18 | 250 | 14.5 | 27.4 | 0.00 | 0.00 | 0.00 | 67 | 1022.1 |
| 20260906120005 | 17 | 304 | 12.9 | 29.0 | 0.00 | 0.00 | 0.00 | 66 | 1022.1 |
| 20260906115503 | 18 | 269 | 17.7 | 29.0 | 0.00 | 0.00 | 0.00 | 63 | 1022.1 |
| 20260906115003 | 20 | 283 | 12.9 | 29.0 | 0.00 | 0.00 | 0.00 | 64 | 1022.0 |
| 20260906114531 | 20 | 250 | 12.9 | 32.2 | 0.00 | 0.00 | 0.00 | 63 | 1022.0 |
| 20260906114008 | 18 | 306 | 17.7 | 35.4 | 0.00 | 0.00 | 0.00 | 65 | 1022.0 |
| 20260906113508 | 18 | 288 | 11.3 | 35.4 | 0.00 | 0.00 | 0.00 | 66 | 1022.1 |
| 20260906113016 | 20 | 283 | 17.7 | 33.8 | 0.00 | 0.00 | 0.00 | 63 | 1022.1 |
| 20260906112514 | 20 | 277 | 20.9 | 33.8 | 0.00 | 0.00 | 0.00 | 64 | 1022.0 |
| 20260906112014 | 19 | 327 | 14.5 | 33.8 | 0.00 | 0.00 | 0.00 | 67 | 1021.9 |
| 20260906111529 | 20 | 333 | 16.1 | 33.8 | 0.00 | 0.00 | 0.00 | 62 | 1021.9 |
| 20260906111016 | 20 | 302 | 14.5 | 33.8 | 0.00 | 0.00 | 0.00 | 66 | 1021.9 |
| 20260906110510 | 19 | 292 | 20.9 | 33.8 | 0.00 | 0.00 | 0.00 | 64 | 1021.8 |
| 20260906110008 | 18 | 287 | 9.7 | 30.6 | 0.00 | 0.00 | 0.00 | 67 | 1021.7 |
| 20260906105509 | 18 | 276 | 16.1 | 30.6 | 0.00 | 0.00 | 0.00 | 64 | 1021.7 |
| 20260906105005 | 19 | 265 | 22.5 | 37.0 | 0.00 | 0.00 | 0.00 | 62 | 1021.6 |
| 20260906104513 | 19 | 309 | 14.5 | 37.0 | 0.00 | 0.00 | 0.00 | 66 | 1021.7 |
| 20260906104008 | 20 | 321 | 14.5 | 32.2 | 0.00 | 0.00 | 0.00 | 64 | 1021.7 |
| 20260906103511 | 19 | 262 | 14.5 | 30.6 | 0.00 | 0.00 | 0.00 | 67 | 1021.4 |
| 20260906103020 | 18 | 280 | 16.1 | 32.2 | 0.00 | 0.00 | 0.00 | 66 | 1021.4 |
| 20260906102514 | 18 | 286 | 12.9 | 32.2 | 0.00 | 0.00 | 0.00 | 68 | 1021.4 |
| 20260906102014 | 18 | 286 | 19.3 | 32.2 | 0.00 | 0.00 | 0.00 | 65 | 1021.3 |
| 20260906101527 | 18 | 296 | 16.1 | 29.0 | 0.00 | 0.00 | 0.00 | 66 | 1021.3 |
| 20260906101020 | 18 | 290 | 14.5 | 29.0 | 0.00 | 0.00 | 0.00 | 68 | 1021.3 |
| 20260906100504 | 17 | 267 | 14.5 | 32.2 | 0.00 | 0.00 | 0.00 | 68 | 1021.4 |
| 20260906100008 | 17 | 261 | 9.7 | 32.2 | 0.00 | 0.00 | 0.00 | 71 | 1021.3 |
| 20260906095510 | 17 | 304 | 16.1 | 27.4 | 0.00 | 0.00 | 0.00 | 69 | 1021.1 |
| 20260906095009 | 17 | 275 | 12.9 | 27.4 | 0.00 | 0.00 | 0.00 | 69 | 1021.1 |
| 20260906094512 | 17 | 267 | 12.9 | 30.6 | 0.00 | 0.00 | 0.00 | 71 | 1021.0 |
| 20260906094010 | 17 | 267 | 11.3 | 30.6 | 0.00 | 0.00 | 0.00 | 73 | 1020.9 |
| 20260906093512 | 17 | 306 | 12.9 | 30.6 | 0.00 | 0.00 | 0.00 | 71 | 1020.9 |
| 20260906093023 | 18 | 313 | 14.5 | 30.6 | 0.00 | 0.00 | 0.00 | 68 | 1020.9 |
| 20260906092515 | 17 | 276 | 9.7 | 24.1 | 0.00 | 0.00 | 0.00 | 71 | 1020.8 |
| 20260906092016 | 17 | 349 | 11.3 | 41.8 | 0.00 | 0.00 | 0.00 | 70 | 1020.9 |
| 20260906091534 | 18 | 221 | 17.7 | 41.8 | 0.00 | 0.00 | 0.00 | 71 | 1020.7 |
| 20260906091007 | 17 | 273 | 12.9 | 29.0 | 0.00 | 0.00 | 0.00 | 74 | 1020.6 |
| 20260906090505 | 17 | 295 | 11.3 | 32.2 | 0.00 | 0.00 | 0.00 | 72 | 1020.6 |
| 20260906090011 | 17 | 298 | 14.5 | 32.2 | 0.00 | 0.00 | 0.00 | 73 | 1020.6 |
| 20260906085508 | 17 | 309 | 12.9 | 27.4 | 0.00 | 0.00 | 0.00 | 72 | 1020.6 |
| 20260906085011 | 16 | 265 | 9.7 | 33.8 | 0.00 | 0.00 | 0.00 | 74 | 1020.5 |
| 20260906084517 | 16 | 288 | 11.3 | 33.8 | 0.00 | 0.00 | 0.00 | 76 | 1020.5 |
| 20260906084011 | 16 | 300 | 14.5 | 29.0 | 0.00 | 0.00 | 0.00 | 75 | 1020.5 |
| 20260906083515 | 16 | 325 | 9.7 | 25.7 | 0.00 | 0.00 | 0.00 | 75 | 1020.5 |
| 20260906083029 | 16 | 304 | 12.9 | 30.6 | 0.00 | 0.00 | 0.00 | 75 | 1020.4 |
| 20260906082514 | 16 | 273 | 17.7 | 30.6 | 0.00 | 0.00 | 0.00 | 75 | 1020.4 |
| 20260906082017 | 16 | 290 | 14.5 | 35.4 | 0.00 | 0.00 | 0.00 | 76 | 1020.3 |
| 20260906081538 | 16 | 283 | 14.5 | 35.4 | 0.00 | 0.00 | 0.00 | 76 | 1020.3 |
| 20260906081005 | 16 | 311 | 12.9 | 32.2 | 0.00 | 0.00 | 0.00 | 77 | 1020.2 |
| 20260906080508 | 16 | 284 | 14.5 | 32.2 | 0.00 | 0.00 | 0.00 | 76 | 1020.2 |
| 20260906080013 | 16 | 237 | 12.9 | 25.7 | 0.00 | 0.00 | 0.00 | 77 | 1020.2 |
| 20260906075512 | 15 | 322 | 14.5 | 24.1 | 0.00 | 0.00 | 0.00 | 78 | 1020.2 |
| 20260906075016 | 15 | 315 | 9.7 | 27.4 | 0.00 | 0.00 | 0.00 | 79 | 1020.1 |
| 20260906074523 | 15 | 300 | 16.1 | 27.4 | 0.00 | 0.00 | 0.00 | 78 | 1020.0 |
| 20260906074016 | 15 | 261 | 14.5 | 25.7 | 0.00 | 0.00 | 0.00 | 78 | 1019.9 |
| 20260906073514 | 15 | 240 | 12.9 | 29.0 | 0.00 | 0.00 | 0.00 | 79 | 1019.9 |
| 20260906073026 | 15 | 267 | 16.1 | 33.8 | 0.00 | 0.00 | 0.00 | 78 | 1019.8 |
| 20260906072514 | 15 | 277 | 14.5 | 33.8 | 0.00 | 0.00 | 0.00 | 79 | 1019.7 |
| 20260906072017 | 15 | 271 | 16.1 | 29.0 | 0.00 | 0.00 | 0.00 | 78 | 1019.8 |
| 20260906071532 | 15 | 268 | 9.7 | 27.4 | 0.00 | 0.00 | 0.00 | 79 | 1019.8 |
| 20260906071020 | 15 | 280 | 12.9 | 27.4 | 0.00 | 0.00 | 0.00 | 80 | 1019.6 |
| 20260906070507 | 15 | 321 | 12.9 | 25.7 | 0.00 | 0.00 | 0.00 | 80 | 1019.7 |
| 20260906070035 | 15 | 275 | 14.5 | 25.7 | 0.00 | 0.00 | 0.00 | 80 | 1019.5 |
| 20260906065510 | 15 | 294 | 12.9 | 30.6 | 0.00 | 0.00 | 0.00 | 79 | 1019.4 |
| 20260906065014 | 15 | 269 | 16.1 | 30.6 | 0.00 | 0.00 | 0.00 | 80 | 1019.3 |
| 20260906064529 | 14 | 294 | 11.3 | 29.0 | 0.00 | 0.00 | 0.00 | 81 | 1019.3 |
| 20260906064015 | 14 | 309 | 14.5 | 29.0 | 0.00 | 0.00 | 0.00 | 80 | 1019.2 |
| 20260906063517 | 14 | 296 | 11.3 | 25.7 | 0.00 | 0.00 | 0.00 | 81 | 1019.2 |
| 20260906063027 | 14 | 258 | 16.1 | 25.7 | 0.00 | 0.00 | 0.00 | 81 | 1019.1 |
| 20260906062515 | 14 | 263 | 9.7 | 22.5 | 0.00 | 0.00 | 0.00 | 81 | 1019.0 |
| 20260906062014 | 14 | 284 | 11.3 | 27.4 | 0.00 | 0.00 | 0.00 | 81 | 1018.9 |
| 20260906061512 | 14 | 288 | 14.5 | 27.4 | 0.00 | 0.00 | 0.00 | 81 | 1018.9 |
| 20260906061010 | 14 | 273 | 11.3 | 37.0 | 0.00 | 0.00 | 0.00 | 82 | 1018.9 |
| 20260906060513 | 14 | 278 | 12.9 | 37.0 | 0.00 | 0.00 | 0.00 | 81 | 1018.8 |
| 20260906060019 | 14 | 284 | 14.5 | 32.2 | 0.00 | 0.00 | 0.00 | 81 | 1018.8 |
| 20260906055512 | 14 | 257 | 14.5 | 27.4 | 0.00 | 0.00 | 0.00 | 81 | 1018.7 |
| 20260906055018 | 14 | 279 | 9.7 | 27.4 | 0.00 | 0.00 | 0.00 | 82 | 1018.6 |
| 20260906054529 | 13 | 302 | 16.1 | 25.7 | 0.00 | 0.00 | 0.00 | 82 | 1018.6 |
| 20260906054014 | 13 | 281 | 14.5 | 24.1 | 0.00 | 0.00 | 0.00 | 82 | 1018.6 |
| 20260906053518 | 13 | 285 | 11.3 | 29.0 | 0.00 | 0.00 | 0.00 | 82 | 1018.5 |
| 20260906053032 | 13 | 266 | 14.5 | 30.6 | 0.00 | 0.00 | 0.00 | 82 | 1018.4 |
| 20260906052522 | 13 | 279 | 11.3 | 30.6 | 0.00 | 0.00 | 0.00 | 82 | 1018.3 |
| 20260906052019 | 13 | 288 | 14.5 | 27.4 | 0.00 | 0.00 | 0.00 | 82 | 1018.3 |
| 20260906051517 | 13 | 280 | 16.1 | 27.4 | 0.00 | 0.00 | 0.00 | 83 | 1018.3 |
| 20260906051012 | 13 | 261 | 12.9 | 29.0 | 0.00 | 0.00 | 0.00 | 83 | 1018.3 |
| 20260906050511 | 13 | 300 | 9.7 | 29.0 | 0.00 | 0.00 | 0.00 | 82 | 1018.2 |
| 20260906050023 | 13 | 253 | 14.5 | 27.4 | 0.00 | 0.00 | 0.00 | 82 | 1018.2 |
| 20260906045519 | 13 | 274 | 14.5 | 27.4 | 0.00 | 0.00 | 0.00 | 82 | 1018.2 |
| 20260906045019 | 13 | 251 | 9.7 | 27.4 | 0.00 | 0.00 | 0.00 | 82 | 1018.1 |
| 20260906044530 | 14 | 284 | 9.7 | 32.2 | 0.00 | 0.00 | 0.00 | 82 | 1018.0 |
| 20260906044019 | 14 | 257 | 12.9 | 32.2 | 0.00 | 0.00 | 0.00 | 82 | 1018.0 |
| 20260906043519 | 14 | 288 | 14.5 | 25.7 | 0.00 | 0.00 | 0.00 | 82 | 1017.9 |
| 20260906043011 | 14 | 249 | 9.7 | 25.7 | 0.00 | 0.00 | 0.00 | 82 | 1017.8 |
| 20260906042508 | 14 | 300 | 8.0 | 22.5 | 0.00 | 0.00 | 0.00 | 82 | 1017.7 |
| 20260906042008 | 14 | 291 | 11.3 | 25.7 | 0.00 | 0.00 | 0.00 | 82 | 1017.7 |
| 20260906041526 | 14 | 319 | 9.7 | 25.7 | 0.00 | 0.00 | 0.00 | 82 | 1017.6 |
| 20260906041014 | 14 | 302 | 8.0 | 27.4 | 0.00 | 0.00 | 0.00 | 82 | 1017.5 |
| 20260906040511 | 14 | 302 | 12.9 | 27.4 | 0.00 | 0.00 | 0.00 | 82 | 1017.3 |
| 20260906040034 | 13 | 292 | 8.0 | 20.9 | 0.00 | 0.00 | 0.00 | 82 | 1017.2 |
| 20260906035515 | 13 | 284 | 8.0 | 29.0 | 0.00 | 0.00 | 0.00 | 82 | 1017.0 |
| 20260906035013 | 13 | 302 | 6.4 | 29.0 | 0.00 | 0.00 | 0.00 | 81 | 1017.0 |
| 20260906034532 | 13 | 294 | 12.9 | 29.0 | 0.00 | 0.00 | 0.00 | 82 | 1016.7 |
| 20260906034006 | 13 | 292 | 11.3 | 29.0 | 0.00 | 0.00 | 0.00 | 83 | 1016.7 |
| 20260906033506 | 14 | 319 | 9.7 | 20.9 | 0.00 | 0.00 | 0.00 | 82 | 1016.7 |
| 20260906033012 | 14 | 315 | 6.4 | 20.9 | 0.00 | 0.00 | 0.00 | 82 | 1016.7 |
| 20260906032510 | 13 | 274 | 8.0 | 19.3 | 0.00 | 0.00 | 0.00 | 83 | 1016.7 |
| 20260906032017 | 13 | 261 | 8.0 | 19.3 | 0.00 | 0.00 | 0.00 | 83 | 1016.6 |
| 20260906031534 | 13 | 302 | 8.0 | 22.5 | 0.00 | 0.00 | 0.00 | 83 | 1016.6 |
| 20260906031012 | 13 | 301 | 11.3 | 24.1 | 0.00 | 0.00 | 0.00 | 83 | 1016.6 |
| 20260906030514 | 13 | 294 | 12.9 | 24.1 | 0.00 | 0.00 | 0.00 | 83 | 1016.6 |
| 20260906030026 | 13 | 314 | 12.9 | 24.1 | 0.00 | 0.00 | 0.00 | 82 | 1016.4 |
| 20260906025519 | 13 | 310 | 12.9 | 24.1 | 0.00 | 0.00 | 0.00 | 82 | 1016.4 |
| 20260906025018 | 13 | 292 | 12.9 | 30.6 | 0.00 | 0.00 | 0.00 | 82 | 1016.3 |
| 20260906024508 | 13 | 268 | 14.5 | 30.6 | 0.00 | 0.00 | 0.00 | 82 | 1016.3 |
| 20260906024006 | 13 | 267 | 12.9 | 40.2 | 0.00 | 0.00 | 0.00 | 82 | 1016.3 |
| 20260906023509 | 13 | 348 | 11.3 | 40.2 | 0.00 | 0.00 | 0.00 | 82 | 1016.3 |
| 20260906023016 | 13 | 273 | 12.9 | 25.7 | 0.00 | 0.00 | 0.00 | 82 | 1016.1 |
| 20260906022515 | 13 | 309 | 14.5 | 30.6 | 0.00 | 0.00 | 0.00 | 82 | 1016.2 |
| 20260906022014 | 13 | 311 | 14.5 | 30.6 | 0.00 | 0.00 | 0.00 | 82 | 1016.1 |
| 20260906021527 | 13 | 263 | 16.1 | 29.0 | 0.00 | 0.00 | 0.00 | 82 | 1016.0 |
| 20260906021012 | 13 | 286 | 16.1 | 29.0 | 0.00 | 0.00 | 0.00 | 81 | 1016.0 |
| 20260906020514 | 13 | 295 | 16.1 | 27.4 | 0.00 | 0.00 | 0.00 | 81 | 1016.0 |
| 20260906020030 | 13 | 251 | 16.1 | 25.7 | 0.00 | 0.00 | 0.00 | 81 | 1015.9 |
| 20260906015515 | 13 | 261 | 16.1 | 38.6 | 0.00 | 0.00 | 0.00 | 81 | 1015.9 |
| 20260906015015 | 13 | 311 | 17.7 | 38.6 | 0.00 | 0.00 | 0.00 | 81 | 1015.8 |
| 20260906014511 | 13 | 269 | 11.3 | 30.6 | 0.00 | 0.00 | 0.00 | 81 | 1015.8 |
| 20260906014006 | 14 | 270 | 14.5 | 30.6 | 0.00 | 0.00 | 0.00 | 81 | 1015.7 |
| 20260906013510 | 14 | 269 | 16.1 | 27.4 | 0.00 | 0.00 | 0.00 | 81 | 1015.7 |
| 20260906013018 | 14 | 325 | 12.9 | 33.8 | 0.00 | 0.00 | 0.00 | 81 | 1015.7 |
| 20260906012512 | 14 | 304 | 17.7 | 33.8 | 0.00 | 0.00 | 0.00 | 81 | 1015.6 |
| 20260906012015 | 14 | 292 | 19.3 | 30.6 | 0.00 | 0.00 | 0.00 | 81 | 1015.5 |
| 20260906011524 | 14 | 280 | 12.9 | 27.4 | 0.00 | 0.00 | 0.00 | 81 | 1015.5 |
| 20260906011016 | 14 | 279 | 16.1 | 27.4 | 0.00 | 0.00 | 0.00 | 81 | 1015.4 |
| 20260906010514 | 14 | 285 | 12.9 | 29.0 | 0.00 | 0.00 | 0.00 | 81 | 1015.5 |
| 20260906010033 | 14 | 279 | 9.7 | 32.2 | 0.00 | 0.00 | 0.00 | 81 | 1015.4 |
| 20260906005516 | 14 | 269 | 17.7 | 35.4 | 0.00 | 0.00 | 0.00 | 81 | 1015.3 |
| 20260906005020 | 14 | 260 | 11.3 | 40.2 | 0.00 | 0.00 | 0.00 | 81 | 1015.2 |
| 20260906004524 | 14 | 292 | 12.9 | 40.2 | 0.00 | 0.00 | 0.00 | 81 | 1015.1 |
| 20260906004009 | 14 | 297 | 11.3 | 25.7 | 0.00 | 0.00 | 0.00 | 81 | 1015.0 |
| 20260906003512 | 14 | 289 | 9.7 | 25.7 | 0.00 | 0.00 | 0.00 | 81 | 1015.0 |
| 20260906003024 | 14 | 252 | 11.3 | 29.0 | 0.00 | 0.00 | 0.00 | 80 | 1014.9 |
| 20260906002511 | 14 | 344 | 11.3 | 29.0 | 0.00 | 0.03 | 0.00 | 81 | 1014.7 |
| 20260906002016 | 14 | 335 | 14.5 | 35.4 | 0.00 | 0.25 | 0.00 | 80 | 1014.7 |
| 20260906001538 | 14 | 338 | 11.3 | 35.4 | 0.00 | 0.25 | 0.00 | 80 | 1014.7 |
| 20260906001023 | 14 | 291 | 14.5 | 35.4 | 0.00 | 0.38 | 0.00 | 80 | 1014.7 |
| 20260906000514 | 14 | 289 | 17.7 | 35.4 | 0.00 | 0.38 | 0.00 | 80 | 1014.6 |
| 20260906000028 | 14 | 282 | 14.5 | 30.6 | 0.00 | 0.38 | 0.00 | 80 | 1014.5 |
| 20260905235516 | 14 | 291 | 14.5 | 30.6 | 0.00 | 0.38 | 0.00 | 80 | 1014.4 |
| 20260905235009 | 14 | 255 | 16.1 | 30.6 | 0.00 | 0.38 | 0.00 | 80 | 1014.4 |
| 20260905234514 | 14 | 284 | 16.1 | 29.0 | 0.00 | 0.38 | 0.00 | 80 | 1014.2 |
| 20260905234013 | 14 | 255 | 14.5 | 30.6 | 0.00 | 0.38 | 0.00 | 80 | 1014.2 |
| 20260905233514 | 14 | 259 | 9.7 | 32.2 | 0.00 | 0.38 | 0.00 | 80 | 1014.1 |
| 20260905233021 | 14 | 297 | 12.9 | 37.0 | 0.00 | 0.38 | 0.00 | 80 | 1014.0 |
| 20260905232514 | 14 | 284 | 19.3 | 37.0 | 0.00 | 0.38 | 0.00 | 80 | 1014.0 |
| 20260905232013 | 14 | 277 | 11.3 | 32.2 | 0.00 | 0.38 | 0.00 | 80 | 1013.9 |
| 20260905231534 | 14 | 298 | 14.5 | 32.2 | 0.00 | 0.38 | 0.00 | 80 | 1013.9 |
| 20260905231016 | 14 | 307 | 14.5 | 32.2 | 0.00 | 0.38 | 0.00 | 80 | 1013.8 |
| 20260905230516 | 14 | 296 | 16.1 | 32.2 | 0.00 | 0.38 | 0.00 | 79 | 1013.7 |
| 20260905230031 | 14 | 292 | 19.3 | 32.2 | 0.00 | 0.38 | 0.00 | 80 | 1013.6 |
| 20260905225519 | 14 | 216 | 11.3 | 30.6 | 0.00 | 0.38 | 0.00 | 79 | 1013.6 |
| 20260905225008 | 14 | 269 | 16.1 | 32.2 | 0.00 | 0.38 | 0.00 | 79 | 1013.5 |
| 20260905224522 | 14 | 263 | 19.3 | 45.1 | 0.00 | 0.38 | 0.00 | 79 | 1013.5 |
| 20260905224018 | 14 | 291 | 16.1 | 45.1 | 0.00 | 0.38 | 0.00 | 79 | 1013.4 |
| 20260905223513 | 14 | 290 | 16.1 | 37.0 | 0.00 | 0.38 | 0.00 | 79 | 1013.3 |
| 20260905223027 | 14 | 260 | 19.3 | 37.0 | 0.00 | 0.38 | 0.00 | 79 | 1013.3 |
| 20260905222516 | 14 | 338 | 16.1 | 38.6 | 0.00 | 0.38 | 0.00 | 79 | 1013.2 |
| 20260905222018 | 14 | 300 | 14.5 | 41.8 | 0.00 | 0.38 | 0.00 | 79 | 1013.2 |
| 20260905221530 | 14 | 242 | 19.3 | 41.8 | 0.00 | 0.38 | 0.00 | 79 | 1013.1 |
| 20260905221014 | 14 | 282 | 17.7 | 38.6 | 0.00 | 0.38 | 0.00 | 78 | 1013.1 |
| 20260905220518 | 14 | 268 | 17.7 | 38.6 | 0.00 | 0.38 | 0.00 | 78 | 1013.0 |
| 20260905220036 | 14 | 328 | 16.1 | 37.0 | 0.00 | 0.38 | 0.00 | 78 | 1013.0 |
| 20260905215512 | 14 | 246 | 12.9 | 37.0 | 0.00 | 0.38 | 0.38 | 78 | 1012.9 |
| 20260905215010 | 14 | 281 | 14.5 | 41.8 | 0.00 | 0.38 | 0.38 | 78 | 1012.9 |
| 20260905214523 | 14 | 294 | 22.5 | 41.8 | 0.00 | 0.38 | 0.38 | 79 | 1012.8 |
| 20260905214013 | 14 | 239 | 17.7 | 41.8 | 0.00 | 0.38 | 0.38 | 78 | 1012.8 |
| 20260905213513 | 14 | 295 | 20.9 | 41.8 | 0.00 | 0.38 | 0.38 | 79 | 1012.7 |
| 20260905213028 | 14 | 269 | 16.1 | 41.8 | 0.00 | 0.38 | 0.38 | 79 | 1012.6 |
| 20260905212515 | 14 | 319 | 14.5 | 45.1 | 0.00 | 0.38 | 0.38 | 79 | 1012.4 |
| 20260905212017 | 14 | 269 | 20.9 | 45.1 | 0.00 | 0.38 | 0.38 | 79 | 1012.4 |
| 20260905211529 | 14 | 293 | 17.7 | 32.2 | 0.00 | 0.38 | 0.38 | 79 | 1012.2 |
| 20260905211020 | 14 | 256 | 16.1 | 37.0 | 0.00 | 0.38 | 0.38 | 79 | 1012.1 |
| 20260905210518 | 14 | 234 | 19.3 | 40.2 | 0.00 | 0.38 | 0.38 | 78 | 1012.0 |
| 20260905210033 | 14 | 294 | 16.1 | 41.8 | 0.00 | 0.38 | 0.38 | 78 | 1011.9 |
| 20260905205512 | 14 | 297 | 17.7 | 41.8 | 0.00 | 0.38 | 0.38 | 78 | 1011.8 |
| 20260905205012 | 14 | 250 | 19.3 | 41.8 | 0.00 | 0.38 | 0.38 | 78 | 1011.6 |
| 20260905204525 | 14 | 265 | 20.9 | 41.8 | 0.00 | 0.38 | 0.38 | 78 | 1011.6 |
| 20260905204013 | 14 | 289 | 19.3 | 37.0 | 0.00 | 0.38 | 0.38 | 78 | 1011.6 |
| 20260905203515 | 14 | 281 | 17.7 | 35.4 | 0.00 | 0.38 | 0.38 | 78 | 1011.5 |
| 20260905203032 | 14 | 279 | 17.7 | 43.5 | 0.00 | 0.38 | 0.38 | 78 | 1011.5 |
| 20260905202519 | 14 | 271 | 19.3 | 43.5 | 0.00 | 0.38 | 0.38 | 78 | 1011.4 |
| 20260905202019 | 14 | 281 | 20.9 | 41.8 | 0.00 | 0.38 | 0.38 | 79 | 1011.4 |
| 20260905201531 | 14 | 263 | 25.7 | 41.8 | 0.00 | 0.38 | 0.38 | 79 | 1011.2 |
| 20260905201018 | 14 | 255 | 22.5 | 46.7 | 0.00 | 0.38 | 0.38 | 78 | 1011.2 |
| 20260905200526 | 14 | 279 | 19.3 | 46.7 | 0.00 | 0.38 | 0.38 | 77 | 1011.1 |
| 20260905200035 | 14 | 252 | 19.3 | 46.7 | 0.00 | 0.38 | 0.38 | 76 | 1011.2 |
| 20260905195515 | 14 | 314 | 22.5 | 46.7 | 0.00 | 0.38 | 0.38 | 76 | 1011.1 |
| 20260905195015 | 14 | 238 | 25.7 | 45.1 | 0.00 | 0.38 | 0.38 | 77 | 1011.0 |
| 20260905194525 | 14 | 259 | 30.6 | 43.5 | 0.00 | 0.38 | 0.38 | 77 | 1011.0 |
| 20260905194005 | 14 | 245 | 22.5 | 49.9 | 0.00 | 0.38 | 0.38 | 77 | 1010.9 |
| 20260905193504 | 14 | 311 | 29.0 | 49.9 | 0.00 | 0.38 | 0.38 | 77 | 1010.9 |
| 20260905193004 | 14 | 297 | 25.7 | 48.3 | 0.00 | 0.38 | 0.38 | 77 | 1010.9 |
| 20260905192508 | 14 | 271 | 24.1 | 51.5 | 0.00 | 0.41 | 0.38 | 77 | 1010.9 |
| 20260905192011 | 14 | 226 | 24.1 | 51.5 | 0.00 | 0.43 | 0.38 | 77 | 1010.7 |
| 20260905191514 | 14 | 282 | 20.9 | 46.7 | 0.00 | 0.46 | 0.38 | 78 | 1010.6 |
| 20260905191008 | 14 | 255 | 22.5 | 53.1 | 0.00 | 0.53 | 0.38 | 78 | 1010.4 |
| 20260905190513 | 14 | 280 | 27.4 | 53.1 | 0.00 | 0.61 | 0.38 | 78 | 1010.4 |
| 20260905190030 | 14 | 275 | 27.4 | 43.5 | 0.00 | 0.64 | 0.38 | 78 | 1010.4 |
| 20260905185515 | 14 | 262 | 20.9 | 43.5 | 0.00 | 0.74 | 0.38 | 78 | 1010.6 |
| 20260905185015 | 14 | 250 | 24.1 | 43.5 | 0.00 | 0.74 | 0.38 | 79 | 1010.4 |
| 20260905184506 | 14 | 265 | 22.5 | 43.5 | 0.00 | 0.74 | 0.38 | 79 | 1010.4 |
| 20260905184003 | 14 | 300 | 17.7 | 40.2 | 0.00 | 0.74 | 0.38 | 79 | 1010.3 |
| 20260905183503 | 14 | 240 | 17.7 | 53.1 | 0.00 | 0.74 | 0.38 | 79 | 1010.3 |
| 20260905183014 | 14 | 259 | 29.0 | 53.1 | 0.00 | 0.76 | 0.38 | 77 | 1010.2 |
| 20260905182510 | 14 | 278 | 22.5 | 35.4 | 0.00 | 0.76 | 0.38 | 77 | 1010.0 |
| 20260905182010 | 14 | 275 | 20.9 | 32.2 | 0.00 | 0.76 | 0.38 | 77 | 1009.9 |
| 20260905181515 | 14 | 253 | 16.1 | 41.8 | 0.00 | 0.76 | 0.38 | 75 | 1009.9 |
| 20260905181010 | 15 | 291 | 24.1 | 51.5 | 0.00 | 0.76 | 0.38 | 74 | 1009.8 |
| 20260905180513 | 15 | 313 | 20.9 | 51.5 | 0.00 | 0.76 | 0.38 | 74 | 1009.7 |
| 20260905180030 | 15 | 263 | 17.7 | 37.0 | 0.00 | 0.76 | 0.38 | 73 | 1009.5 |
| 20260905175516 | 15 | 255 | 24.1 | 37.0 | 0.00 | 0.76 | 0.38 | 72 | 1009.6 |
| 20260905175018 | 15 | 275 | 19.3 | 37.0 | 0.00 | 0.76 | 0.38 | 72 | 1009.5 |
| 20260905174507 | 15 | 292 | 24.1 | 38.6 | 0.00 | 0.76 | 0.38 | 71 | 1009.4 |
| 20260905174003 | 15 | 273 | 22.5 | 38.6 | 0.00 | 0.76 | 0.38 | 71 | 1009.3 |
| 20260905173507 | 15 | 294 | 20.9 | 38.6 | 0.00 | 0.76 | 0.38 | 71 | 1009.5 |
| 20260905173013 | 15 | 247 | 19.3 | 35.4 | 0.00 | 0.76 | 0.38 | 71 | 1009.3 |
| 20260905172506 | 15 | 290 | 14.5 | 35.4 | 0.00 | 0.76 | 0.38 | 72 | 1009.4 |
| 20260905172010 | 15 | 257 | 17.7 | 40.2 | 0.00 | 0.76 | 0.38 | 71 | 1009.4 |
| 20260905171522 | 15 | 262 | 20.9 | 37.0 | 0.00 | 0.76 | 0.38 | 71 | 1009.4 |
| 20260905171013 | 15 | 256 | 20.9 | 35.4 | 0.00 | 0.76 | 0.38 | 72 | 1009.4 |
| 20260905170515 | 15 | 272 | 17.7 | 38.6 | 0.00 | 0.76 | 0.38 | 71 | 1009.4 |
| 20260905170028 | 15 | 249 | 20.9 | 38.6 | 0.00 | 0.76 | 0.38 | 73 | 1009.4 |
| 20260905165516 | 15 | 254 | 11.3 | 33.8 | 0.00 | 0.76 | 0.38 | 75 | 1009.3 |
| 20260905165003 | 15 | 245 | 17.7 | 33.8 | 0.00 | 0.76 | 0.38 | 72 | 1009.2 |
| 20260905164507 | 15 | 254 | 16.1 | 38.6 | 0.00 | 0.76 | 0.38 | 72 | 1009.3 |
| 20260905164005 | 15 | 252 | 19.3 | 41.8 | 0.00 | 0.76 | 0.38 | 70 | 1009.2 |
| 20260905163510 | 16 | 325 | 25.7 | 41.8 | 0.00 | 0.76 | 0.38 | 70 | 1009.1 |
| 20260905163012 | 16 | 286 | 24.1 | 41.8 | 0.00 | 0.76 | 0.38 | 71 | 1008.9 |
| 20260905162510 | 16 | 256 | 17.7 | 33.8 | 0.00 | 0.76 | 0.38 | 71 | 1009.0 |
| 20260905162013 | 16 | 267 | 20.9 | 43.5 | 0.00 | 0.76 | 0.38 | 70 | 1009.1 |
| 20260905161524 | 16 | 244 | 24.1 | 43.5 | 0.00 | 0.76 | 0.38 | 70 | 1008.9 |
| 20260905161011 | 16 | 222 | 20.9 | 40.2 | 0.00 | 0.76 | 0.38 | 71 | 1009.0 |
| 20260905160515 | 16 | 224 | 17.7 | 29.0 | 0.00 | 0.76 | 0.38 | 72 | 1008.9 |
| 20260905160044 | 16 | 261 | 17.7 | 40.2 | 0.00 | 0.76 | 0.38 | 73 | 1008.9 |
| 20260905155514 | 16 | 259 | 20.9 | 41.8 | 0.00 | 0.76 | 0.38 | 72 | 1008.8 |
| 20260905155002 | 16 | 285 | 22.5 | 41.8 | 0.00 | 0.76 | 0.38 | 73 | 1008.8 |
| 20260905154508 | 16 | 270 | 16.1 | 45.1 | 0.00 | 0.76 | 0.38 | 70 | 1008.8 |
| 20260905154006 | 16 | 312 | 19.3 | 45.1 | 0.00 | 0.76 | 0.38 | 71 | 1008.7 |
| 20260905153510 | 16 | 275 | 27.4 | 43.5 | 0.00 | 0.76 | 0.38 | 68 | 1008.7 |
| 20260905153016 | 17 | 279 | 22.5 | 49.9 | 0.00 | 0.76 | 0.38 | 68 | 1008.6 |
| 20260905152511 | 17 | 290 | 29.0 | 49.9 | 0.00 | 0.76 | 0.38 | 66 | 1008.6 |
| 20260905152016 | 17 | 269 | 27.4 | 49.9 | 0.00 | 0.76 | 0.38 | 66 | 1008.6 |